Current Weather

DuPage County

West Chicago, Illinois (KDPA)

Report from: Sunday, April 21, 2024 2:52 PM CDT
Current time: Sunday, April 21, 2024 3:04 PM CDT

Nearby weather – Weather history – Daily summaries
Weather forecast

Temperature13.3°C (55.9°F)
Dew point-3.3°C (26.1°F)
Winds 14 kts (7.2 m/s, 16.1 mph) Northwest (320°)
Wind gusts 24 kts (12.3 m/s, 27.6 mph)
Visibility10 mi. (16.1 km)
Clouds Sky clear
Altimeter30.13 in.Hg (1020 mB)
Relative humidity31 %
Density altitude-375 ft. (-114 m)
Sea-level pressure102.1 kPa (1021 mB, 30.14 in.Hg)
Remarks System requires maintenance
Automated weather observing station with precipitation discriminator
Flight conditions Visual Meteorological Conditions
Raw dataKDPA 211952Z 32014G24KT 10SM CLR 13/M03 A3013 RMK AO2 SLP207 T01331033 $
An error has occurred. This application may no longer respond until reloaded. Reload 🗙